sensor_id;sensor_type;location;lat;lon;timestamp;temperature;humidity
39045;DHT22;52192;52.002;5.956;2023-05-14T00:01:58;17.90;61.30
39045;DHT22;52192;52.002;5.956;2023-05-14T00:04:24;17.80;61.50
39045;DHT22;52192;52.002;5.956;2023-05-14T00:06:49;17.80;61.70
39045;DHT22;52192;52.002;5.956;2023-05-14T00:09:15;17.70;61.90
39045;DHT22;52192;52.002;5.956;2023-05-14T00:11:41;17.70;61.90
39045;DHT22;52192;52.002;5.956;2023-05-14T00:14:07;17.70;62.00
39045;DHT22;52192;52.002;5.956;2023-05-14T00:16:32;17.60;62.30
39045;DHT22;52192;52.002;5.956;2023-05-14T00:18:58;17.60;62.30
39045;DHT22;52192;52.002;5.956;2023-05-14T00:21:24;17.50;62.30
39045;DHT22;52192;52.002;5.956;2023-05-14T00:23:49;17.50;62.50
39045;DHT22;52192;52.002;5.956;2023-05-14T00:26:15;17.40;62.50
39045;DHT22;52192;52.002;5.956;2023-05-14T00:28:41;17.40;62.70
39045;DHT22;52192;52.002;5.956;2023-05-14T00:31:08;17.30;62.70
39045;DHT22;52192;52.002;5.956;2023-05-14T00:33:34;17.30;62.80
39045;DHT22;52192;52.002;5.956;2023-05-14T00:36:00;17.20;63.10
39045;DHT22;52192;52.002;5.956;2023-05-14T00:38:26;17.20;63.20
39045;DHT22;52192;52.002;5.956;2023-05-14T00:40:52;17.10;63.40
39045;DHT22;52192;52.002;5.956;2023-05-14T00:43:21;17.10;63.40
39045;DHT22;52192;52.002;5.956;2023-05-14T00:45:52;17.10;63.50
39045;DHT22;52192;52.002;5.956;2023-05-14T00:48:19;17.10;63.60
39045;DHT22;52192;52.002;5.956;2023-05-14T00:50:45;17.00;63.50
39045;DHT22;52192;52.002;5.956;2023-05-14T00:53:11;17.00;63.60
39045;DHT22;52192;52.002;5.956;2023-05-14T00:55:38;17.00;63.80
39045;DHT22;52192;52.002;5.956;2023-05-14T00:58:08;16.90;63.80
39045;DHT22;52192;52.002;5.956;2023-05-14T01:00:35;16.90;63.90
39045;DHT22;52192;52.002;5.956;2023-05-14T01:03:02;16.90;64.10
39045;DHT22;52192;52.002;5.956;2023-05-14T01:09:08;16.90;64.10
39045;DHT22;52192;52.002;5.956;2023-05-14T01:14:33;16.90;64.30
39045;DHT22;52192;52.002;5.956;2023-05-14T01:17:03;17.00;64.10
39045;DHT22;52192;52.002;5.956;2023-05-14T01:22:02;16.90;64.30
39045;DHT22;52192;52.002;5.956;2023-05-14T01:24:27;16.90;64.40
39045;DHT22;52192;52.002;5.956;2023-05-14T01:26:57;16.90;64.40
39045;DHT22;52192;52.002;5.956;2023-05-14T01:29:26;17.00;64.40
39045;DHT22;52192;52.002;5.956;2023-05-14T01:31:54;16.90;64.40
39045;DHT22;52192;52.002;5.956;2023-05-14T01:34:23;16.90;64.40
39045;DHT22;52192;52.002;5.956;2023-05-14T01:36:50;16.90;64.60
39045;DHT22;52192;52.002;5.956;2023-05-14T01:39:16;16.80;64.90
39045;DHT22;52192;52.002;5.956;2023-05-14T01:41:43;16.70;65.20
39045;DHT22;52192;52.002;5.956;2023-05-14T01:44:10;16.70;65.30
39045;DHT22;52192;52.002;5.956;2023-05-14T01:46:35;16.60;65.60
39045;DHT22;52192;52.002;5.956;2023-05-14T01:49:01;16.60;65.70
39045;DHT22;52192;52.002;5.956;2023-05-14T01:51:27;16.50;65.80
39045;DHT22;52192;52.002;5.956;2023-05-14T01:53:52;16.50;66.00
39045;DHT22;52192;52.002;5.956;2023-05-14T01:56:19;16.60;66.00
39045;DHT22;52192;52.002;5.956;2023-05-14T01:58:48;16.50;66.00
39045;DHT22;52192;52.002;5.956;2023-05-14T02:01:14;16.50;66.20
39045;DHT22;52192;52.002;5.956;2023-05-14T02:03:40;16.40;66.10
39045;DHT22;52192;52.002;5.956;2023-05-14T02:06:06;16.40;66.30
39045;DHT22;52192;52.002;5.956;2023-05-14T02:08:31;16.40;66.40
39045;DHT22;52192;52.002;5.956;2023-05-14T02:10:57;16.40;66.40
39045;DHT22;52192;52.002;5.956;2023-05-14T02:13:24;16.30;66.50
39045;DHT22;52192;52.002;5.956;2023-05-14T02:15:50;16.30;66.70
39045;DHT22;52192;52.002;5.956;2023-05-14T02:18:16;16.30;66.80
39045;DHT22;52192;52.002;5.956;2023-05-14T02:20:41;16.20;66.90
39045;DHT22;52192;52.002;5.956;2023-05-14T02:23:07;16.20;67.10
39045;DHT22;52192;52.002;5.956;2023-05-14T02:25:33;16.20;67.00
39045;DHT22;52192;52.002;5.956;2023-05-14T02:27:58;16.20;67.30
39045;DHT22;52192;52.002;5.956;2023-05-14T02:30:24;16.10;68.00
39045;DHT22;52192;52.002;5.956;2023-05-14T02:32:50;16.10;67.50
39045;DHT22;52192;52.002;5.956;2023-05-14T02:35:15;16.10;67.50
39045;DHT22;52192;52.002;5.956;2023-05-14T02:37:41;16.00;67.50
39045;DHT22;52192;52.002;5.956;2023-05-14T02:40:07;16.00;67.60
39045;DHT22;52192;52.002;5.956;2023-05-14T02:42:33;15.90;67.60
39045;DHT22;52192;52.002;5.956;2023-05-14T02:44:59;15.90;67.90
39045;DHT22;52192;52.002;5.956;2023-05-14T02:47:25;15.80;67.90
39045;DHT22;52192;52.002;5.956;2023-05-14T02:49:51;15.80;68.30
39045;DHT22;52192;52.002;5.956;2023-05-14T02:52:16;15.70;68.30
39045;DHT22;52192;52.002;5.956;2023-05-14T02:54:42;15.70;68.50
39045;DHT22;52192;52.002;5.956;2023-05-14T02:57:08;15.60;68.60
39045;DHT22;52192;52.002;5.956;2023-05-14T02:59:33;15.50;68.70
39045;DHT22;52192;52.002;5.956;2023-05-14T03:01:59;15.50;68.90
39045;DHT22;52192;52.002;5.956;2023-05-14T03:04:25;15.50;69.00
39045;DHT22;52192;52.002;5.956;2023-05-14T03:06:50;15.40;68.90
39045;DHT22;52192;52.002;5.956;2023-05-14T03:09:16;15.40;69.10
39045;DHT22;52192;52.002;5.956;2023-05-14T03:11:42;15.40;69.00
39045;DHT22;52192;52.002;5.956;2023-05-14T03:14:07;15.40;69.30
39045;DHT22;52192;52.002;5.956;2023-05-14T03:16:33;15.40;69.30
39045;DHT22;52192;52.002;5.956;2023-05-14T03:18:59;15.40;69.30
39045;DHT22;52192;52.002;5.956;2023-05-14T03:21:24;15.40;69.40
39045;DHT22;52192;52.002;5.956;2023-05-14T03:23:52;15.40;69.50
39045;DHT22;52192;52.002;5.956;2023-05-14T03:26:18;15.40;69.50
39045;DHT22;52192;52.002;5.956;2023-05-14T03:28:43;15.30;69.50
39045;DHT22;52192;52.002;5.956;2023-05-14T03:31:09;15.40;69.60
39045;DHT22;52192;52.002;5.956;2023-05-14T03:33:35;15.30;69.60
39045;DHT22;52192;52.002;5.956;2023-05-14T03:36:01;15.30;69.60
39045;DHT22;52192;52.002;5.956;2023-05-14T03:38:26;15.30;69.60
39045;DHT22;52192;52.002;5.956;2023-05-14T03:40:52;15.30;69.60
39045;DHT22;52192;52.002;5.956;2023-05-14T03:43:18;15.20;69.60
39045;DHT22;52192;52.002;5.956;2023-05-14T03:45:43;15.20;69.90
39045;DHT22;52192;52.002;5.956;2023-05-14T03:48:09;15.10;70.00
39045;DHT22;52192;52.002;5.956;2023-05-14T03:50:35;15.10;70.30
39045;DHT22;52192;52.002;5.956;2023-05-14T03:53:00;15.00;70.20
39045;DHT22;52192;52.002;5.956;2023-05-14T03:55:26;15.00;70.30
39045;DHT22;52192;52.002;5.956;2023-05-14T03:57:52;15.00;70.40
39045;DHT22;52192;52.002;5.956;2023-05-14T04:00:19;15.00;70.60
39045;DHT22;52192;52.002;5.956;2023-05-14T04:02:45;14.90;70.70
39045;DHT22;52192;52.002;5.956;2023-05-14T04:05:11;14.90;70.80
39045;DHT22;52192;52.002;5.956;2023-05-14T04:07:36;14.90;70.80
39045;DHT22;52192;52.002;5.956;2023-05-14T04:10:03;14.90;70.90
39045;DHT22;52192;52.002;5.956;2023-05-14T04:12:28;14.90;71.00
39045;DHT22;52192;52.002;5.956;2023-05-14T04:14:55;14.90;71.00
39045;DHT22;52192;52.002;5.956;2023-05-14T04:17:21;14.90;70.90
39045;DHT22;52192;52.002;5.956;2023-05-14T04:19:46;15.00;71.10
39045;DHT22;52192;52.002;5.956;2023-05-14T04:22:12;15.00;71.10
39045;DHT22;52192;52.002;5.956;2023-05-14T04:24:37;15.00;71.20
39045;DHT22;52192;52.002;5.956;2023-05-14T04:27:03;14.90;71.20
39045;DHT22;52192;52.002;5.956;2023-05-14T04:29:29;14.90;71.40
39045;DHT22;52192;52.002;5.956;2023-05-14T04:31:55;14.90;71.50
39045;DHT22;52192;52.002;5.956;2023-05-14T04:34:20;14.90;71.60
39045;DHT22;52192;52.002;5.956;2023-05-14T04:36:46;14.80;71.50
39045;DHT22;52192;52.002;5.956;2023-05-14T04:39:12;14.80;71.60
39045;DHT22;52192;52.002;5.956;2023-05-14T04:41:38;14.80;71.70
39045;DHT22;52192;52.002;5.956;2023-05-14T04:44:03;14.70;71.70
39045;DHT22;52192;52.002;5.956;2023-05-14T04:46:29;14.70;71.90
39045;DHT22;52192;52.002;5.956;2023-05-14T04:48:55;14.70;72.00
39045;DHT22;52192;52.002;5.956;2023-05-14T04:51:21;14.70;72.10
39045;DHT22;52192;52.002;5.956;2023-05-14T04:53:47;14.70;72.20
39045;DHT22;52192;52.002;5.956;2023-05-14T04:56:13;14.70;72.90
39045;DHT22;52192;52.002;5.956;2023-05-14T04:58:39;14.80;72.40
39045;DHT22;52192;52.002;5.956;2023-05-14T05:01:04;14.90;72.40
39045;DHT22;52192;52.002;5.956;2023-05-14T05:03:31;15.00;72.20
39045;DHT22;52192;52.002;5.956;2023-05-14T05:05:57;15.10;72.10
39045;DHT22;52192;52.002;5.956;2023-05-14T05:08:22;15.20;72.20
39045;DHT22;52192;52.002;5.956;2023-05-14T05:10:48;15.30;72.00
39045;DHT22;52192;52.002;5.956;2023-05-14T05:13:14;15.40;71.80
39045;DHT22;52192;52.002;5.956;2023-05-14T05:15:41;15.40;71.60
39045;DHT22;52192;52.002;5.956;2023-05-14T05:18:07;15.50;71.60
39045;DHT22;52192;52.002;5.956;2023-05-14T05:20:33;15.60;71.50
39045;DHT22;52192;52.002;5.956;2023-05-14T05:22:59;15.60;71.40
39045;DHT22;52192;52.002;5.956;2023-05-14T05:25:25;15.60;71.40
39045;DHT22;52192;52.002;5.956;2023-05-14T05:27:51;15.60;71.40
39045;DHT22;52192;52.002;5.956;2023-05-14T05:30:16;15.60;71.20
39045;DHT22;52192;52.002;5.956;2023-05-14T05:32:42;15.70;71.40
39045;DHT22;52192;52.002;5.956;2023-05-14T05:35:08;15.70;71.30
39045;DHT22;52192;52.002;5.956;2023-05-14T05:37:34;15.70;71.40
39045;DHT22;52192;52.002;5.956;2023-05-14T05:40:00;15.70;71.50
39045;DHT22;52192;52.002;5.956;2023-05-14T05:42:25;15.70;71.50
39045;DHT22;52192;52.002;5.956;2023-05-14T05:44:51;15.70;71.30
39045;DHT22;52192;52.002;5.956;2023-05-14T05:47:16;15.80;71.30
39045;DHT22;52192;52.002;5.956;2023-05-14T05:49:42;15.80;71.30
39045;DHT22;52192;52.002;5.956;2023-05-14T05:52:08;15.80;71.30
39045;DHT22;52192;52.002;5.956;2023-05-14T05:54:34;15.90;71.40
39045;DHT22;52192;52.002;5.956;2023-05-14T05:57:00;16.00;71.20
39045;DHT22;52192;52.002;5.956;2023-05-14T05:59:26;16.10;71.10
39045;DHT22;52192;52.002;5.956;2023-05-14T06:01:52;16.10;70.80
39045;DHT22;52192;52.002;5.956;2023-05-14T06:04:17;16.10;71.40
39045;DHT22;52192;52.002;5.956;2023-05-14T06:06:43;16.20;70.90
39045;DHT22;52192;52.002;5.956;2023-05-14T06:09:08;16.20;70.80
39045;DHT22;52192;52.002;5.956;2023-05-14T06:11:34;16.20;70.60
39045;DHT22;52192;52.002;5.956;2023-05-14T06:14:00;16.20;70.70
39045;DHT22;52192;52.002;5.956;2023-05-14T06:16:26;16.30;70.60
39045;DHT22;52192;52.002;5.956;2023-05-14T06:18:52;16.30;70.40
39045;DHT22;52192;52.002;5.956;2023-05-14T06:21:19;16.40;70.40
39045;DHT22;52192;52.002;5.956;2023-05-14T06:23:45;16.50;70.30
39045;DHT22;52192;52.002;5.956;2023-05-14T06:26:10;16.60;70.20
39045;DHT22;52192;52.002;5.956;2023-05-14T06:28:36;16.70;70.10
39045;DHT22;52192;52.002;5.956;2023-05-14T06:31:02;16.70;69.90
39045;DHT22;52192;52.002;5.956;2023-05-14T06:33:28;16.80;69.70
39045;DHT22;52192;52.002;5.956;2023-05-14T06:36:03;16.90;69.50
39045;DHT22;52192;52.002;5.956;2023-05-14T06:38:29;17.00;69.30
39045;DHT22;52192;52.002;5.956;2023-05-14T06:40:55;17.20;69.20
39045;DHT22;52192;52.002;5.956;2023-05-14T06:43:21;17.30;69.00
39045;DHT22;52192;52.002;5.956;2023-05-14T06:45:50;17.40;68.70
39045;DHT22;52192;52.002;5.956;2023-05-14T06:48:17;17.50;68.50
39045;DHT22;52192;52.002;5.956;2023-05-14T06:50:47;17.60;68.40
39045;DHT22;52192;52.002;5.956;2023-05-14T06:53:13;17.80;68.10
39045;DHT22;52192;52.002;5.956;2023-05-14T06:55:39;17.90;67.80
39045;DHT22;52192;52.002;5.956;2023-05-14T06:58:06;18.00;67.60
39045;DHT22;52192;52.002;5.956;2023-05-14T07:00:31;18.10;67.40
39045;DHT22;52192;52.002;5.956;2023-05-14T07:02:57;18.20;67.40
39045;DHT22;52192;52.002;5.956;2023-05-14T07:05:23;18.30;67.10
39045;DHT22;52192;52.002;5.956;2023-05-14T07:07:49;18.30;66.90
39045;DHT22;52192;52.002;5.956;2023-05-14T07:10:15;18.30;67.00
39045;DHT22;52192;52.002;5.956;2023-05-14T07:12:41;18.30;66.90
39045;DHT22;52192;52.002;5.956;2023-05-14T07:15:07;18.40;66.60
39045;DHT22;52192;52.002;5.956;2023-05-14T07:17:33;18.40;66.40
39045;DHT22;52192;52.002;5.956;2023-05-14T07:19:59;18.40;66.20
39045;DHT22;52192;52.002;5.956;2023-05-14T07:22:25;18.50;66.20
39045;DHT22;52192;52.002;5.956;2023-05-14T07:24:50;18.60;65.90
39045;DHT22;52192;52.002;5.956;2023-05-14T07:27:16;18.70;65.50
39045;DHT22;52192;52.002;5.956;2023-05-14T07:29:42;18.70;65.50
39045;DHT22;52192;52.002;5.956;2023-05-14T07:32:08;18.70;65.30
39045;DHT22;52192;52.002;5.956;2023-05-14T07:34:34;18.70;65.40
39045;DHT22;52192;52.002;5.956;2023-05-14T07:37:00;18.80;65.30
39045;DHT22;52192;52.002;5.956;2023-05-14T07:39:26;18.90;65.00
39045;DHT22;52192;52.002;5.956;2023-05-14T07:41:51;19.00;64.90
39045;DHT22;52192;52.002;5.956;2023-05-14T07:44:19;19.00;64.80
39045;DHT22;52192;52.002;5.956;2023-05-14T07:46:45;19.10;64.70
39045;DHT22;52192;52.002;5.956;2023-05-14T07:49:11;19.20;64.50
39045;DHT22;52192;52.002;5.956;2023-05-14T07:51:37;19.40;64.30
39045;DHT22;52192;52.002;5.956;2023-05-14T07:54:03;19.40;63.90
39045;DHT22;52192;52.002;5.956;2023-05-14T07:56:28;19.50;63.60
39045;DHT22;52192;52.002;5.956;2023-05-14T07:58:54;19.60;63.40
39045;DHT22;52192;52.002;5.956;2023-05-14T08:01:21;19.70;63.10
39045;DHT22;52192;52.002;5.956;2023-05-14T08:03:47;19.80;63.00
39045;DHT22;52192;52.002;5.956;2023-05-14T08:06:13;19.80;62.20
39045;DHT22;52192;52.002;5.956;2023-05-14T08:08:38;19.90;62.10
39045;DHT22;52192;52.002;5.956;2023-05-14T08:11:05;19.90;61.90
39045;DHT22;52192;52.002;5.956;2023-05-14T08:13:30;20.10;61.90
39045;DHT22;52192;52.002;5.956;2023-05-14T08:15:56;20.20;61.90
39045;DHT22;52192;52.002;5.956;2023-05-14T08:18:22;20.30;61.80
39045;DHT22;52192;52.002;5.956;2023-05-14T08:20:47;20.40;61.80
39045;DHT22;52192;52.002;5.956;2023-05-14T08:23:13;20.40;61.70
39045;DHT22;52192;52.002;5.956;2023-05-14T08:25:39;20.50;61.70
39045;DHT22;52192;52.002;5.956;2023-05-14T08:28:04;20.60;61.60
39045;DHT22;52192;52.002;5.956;2023-05-14T08:30:30;20.70;61.50
39045;DHT22;52192;52.002;5.956;2023-05-14T08:32:57;20.80;60.60
39045;DHT22;52192;52.002;5.956;2023-05-14T08:35:23;20.90;60.40
39045;DHT22;52192;52.002;5.956;2023-05-14T08:37:48;21.00;59.60
39045;DHT22;52192;52.002;5.956;2023-05-14T08:40:14;21.10;59.50
39045;DHT22;52192;52.002;5.956;2023-05-14T08:42:40;21.10;59.50
39045;DHT22;52192;52.002;5.956;2023-05-14T08:45:28;21.10;59.40
39045;DHT22;52192;52.002;5.956;2023-05-14T08:47:58;21.10;58.80
39045;DHT22;52192;52.002;5.956;2023-05-14T08:50:26;21.10;58.30
39045;DHT22;52192;52.002;5.956;2023-05-14T08:52:52;21.30;58.30
39045;DHT22;52192;52.002;5.956;2023-05-14T08:55:18;21.40;57.60
39045;DHT22;52192;52.002;5.956;2023-05-14T08:57:44;21.60;57.10
39045;DHT22;52192;52.002;5.956;2023-05-14T09:00:11;21.80;56.60
39045;DHT22;52192;52.002;5.956;2023-05-14T09:02:39;21.90;55.90
39045;DHT22;52192;52.002;5.956;2023-05-14T09:05:05;22.20;54.90
39045;DHT22;52192;52.002;5.956;2023-05-14T09:07:32;22.30;53.60
39045;DHT22;52192;52.002;5.956;2023-05-14T09:09:58;22.40;53.70
39045;DHT22;52192;52.002;5.956;2023-05-14T09:12:24;22.40;53.60
39045;DHT22;52192;52.002;5.956;2023-05-14T09:14:50;22.40;52.90
39045;DHT22;52192;52.002;5.956;2023-05-14T09:17:17;22.30;53.20
39045;DHT22;52192;52.002;5.956;2023-05-14T09:19:43;22.30;53.50
39045;DHT22;52192;52.002;5.956;2023-05-14T09:22:14;22.30;53.30
39045;DHT22;52192;52.002;5.956;2023-05-14T09:24:40;22.40;52.60
39045;DHT22;52192;52.002;5.956;2023-05-14T09:27:07;22.50;52.20
39045;DHT22;52192;52.002;5.956;2023-05-14T09:29:32;22.60;51.50
39045;DHT22;52192;52.002;5.956;2023-05-14T09:31:59;22.70;51.60
39045;DHT22;52192;52.002;5.956;2023-05-14T09:34:33;22.80;51.10
39045;DHT22;52192;52.002;5.956;2023-05-14T09:37:06;23.00;51.00
39045;DHT22;52192;52.002;5.956;2023-05-14T09:39:33;23.10;50.10
39045;DHT22;52192;52.002;5.956;2023-05-14T09:42:01;23.20;49.40
39045;DHT22;52192;52.002;5.956;2023-05-14T09:44:27;23.30;49.00
39045;DHT22;52192;52.002;5.956;2023-05-14T09:46:53;23.40;48.70
39045;DHT22;52192;52.002;5.956;2023-05-14T09:49:20;23.50;47.80
39045;DHT22;52192;52.002;5.956;2023-05-14T09:51:45;23.50;47.40
39045;DHT22;52192;52.002;5.956;2023-05-14T09:54:12;23.70;47.50
39045;DHT22;52192;52.002;5.956;2023-05-14T09:56:38;23.80;47.10
39045;DHT22;52192;52.002;5.956;2023-05-14T09:59:04;24.00;47.10
39045;DHT22;52192;52.002;5.956;2023-05-14T10:01:30;24.10;46.70
39045;DHT22;52192;52.002;5.956;2023-05-14T10:03:57;24.30;46.40
39045;DHT22;52192;52.002;5.956;2023-05-14T10:06:27;24.40;46.30
39045;DHT22;52192;52.002;5.956;2023-05-14T10:08:55;24.50;45.90
39045;DHT22;52192;52.002;5.956;2023-05-14T10:11:24;24.50;45.90
39045;DHT22;52192;52.002;5.956;2023-05-14T10:14:17;24.60;45.90
39045;DHT22;52192;52.002;5.956;2023-05-14T10:16:52;24.60;45.30
39045;DHT22;52192;52.002;5.956;2023-05-14T10:19:20;24.70;44.90
39045;DHT22;52192;52.002;5.956;2023-05-14T10:21:52;24.80;44.90
39045;DHT22;52192;52.002;5.956;2023-05-14T10:24:18;24.80;43.90
39045;DHT22;52192;52.002;5.956;2023-05-14T10:26:44;24.90;44.70
39045;DHT22;52192;52.002;5.956;2023-05-14T10:29:11;25.00;45.10
39045;DHT22;52192;52.002;5.956;2023-05-14T10:31:55;25.10;45.10
39045;DHT22;52192;52.002;5.956;2023-05-14T10:36:58;25.10;45.00
39045;DHT22;52192;52.002;5.956;2023-05-14T10:39:39;25.10;45.20
39045;DHT22;52192;52.002;5.956;2023-05-14T10:42:07;25.20;45.70
39045;DHT22;52192;52.002;5.956;2023-05-14T10:44:34;25.40;45.90
39045;DHT22;52192;52.002;5.956;2023-05-14T10:47:01;25.50;45.20
39045;DHT22;52192;52.002;5.956;2023-05-14T10:49:27;25.40;45.40
39045;DHT22;52192;52.002;5.956;2023-05-14T10:51:53;25.40;45.30
39045;DHT22;52192;52.002;5.956;2023-05-14T10:54:18;25.40;45.60
39045;DHT22;52192;52.002;5.956;2023-05-14T10:56:48;25.50;45.70
39045;DHT22;52192;52.002;5.956;2023-05-14T10:59:15;25.60;45.50
39045;DHT22;52192;52.002;5.956;2023-05-14T11:01:42;25.70;44.90
39045;DHT22;52192;52.002;5.956;2023-05-14T11:04:07;25.70;44.80
39045;DHT22;52192;52.002;5.956;2023-05-14T11:06:34;25.70;44.80
39045;DHT22;52192;52.002;5.956;2023-05-14T11:09:02;25.90;44.10
39045;DHT22;52192;52.002;5.956;2023-05-14T11:11:29;26.00;43.40
39045;DHT22;52192;52.002;5.956;2023-05-14T11:13:55;26.20;42.00
39045;DHT22;52192;52.002;5.956;2023-05-14T11:16:21;26.30;41.10
39045;DHT22;52192;52.002;5.956;2023-05-14T11:18:52;26.30;40.60
39045;DHT22;52192;52.002;5.956;2023-05-14T11:21:24;26.50;40.80
39045;DHT22;52192;52.002;5.956;2023-05-14T11:23:50;26.60;40.80
39045;DHT22;52192;52.002;5.956;2023-05-14T11:26:16;26.70;40.00
39045;DHT22;52192;52.002;5.956;2023-05-14T11:28:43;26.80;39.90
39045;DHT22;52192;52.002;5.956;2023-05-14T11:31:09;26.90;40.10
39045;DHT22;52192;52.002;5.956;2023-05-14T11:33:35;27.10;39.70
39045;DHT22;52192;52.002;5.956;2023-05-14T11:36:00;27.20;39.80
39045;DHT22;52192;52.002;5.956;2023-05-14T11:38:26;27.30;39.60
39045;DHT22;52192;52.002;5.956;2023-05-14T11:40:54;27.40;39.60
39045;DHT22;52192;52.002;5.956;2023-05-14T11:43:20;27.50;39.70
39045;DHT22;52192;52.002;5.956;2023-05-14T11:45:52;27.70;39.90
39045;DHT22;52192;52.002;5.956;2023-05-14T11:48:22;27.80;39.70
39045;DHT22;52192;52.002;5.956;2023-05-14T11:50:49;27.90;38.90
39045;DHT22;52192;52.002;5.956;2023-05-14T11:53:23;27.90;38.40
39045;DHT22;52192;52.002;5.956;2023-05-14T11:55:49;27.90;37.60
39045;DHT22;52192;52.002;5.956;2023-05-14T11:58:15;27.80;37.30
39045;DHT22;52192;52.002;5.956;2023-05-14T12:00:44;27.70;37.20
39045;DHT22;52192;52.002;5.956;2023-05-14T12:03:10;27.50;37.10
39045;DHT22;52192;52.002;5.956;2023-05-14T12:05:39;27.20;37.20
39045;DHT22;52192;52.002;5.956;2023-05-14T12:08:31;27.00;37.40
39045;DHT22;52192;52.002;5.956;2023-05-14T12:10:58;26.70;37.60
39045;DHT22;52192;52.002;5.956;2023-05-14T12:13:35;26.40;37.60
39045;DHT22;52192;52.002;5.956;2023-05-14T12:16:01;26.30;38.00
39045;DHT22;52192;52.002;5.956;2023-05-14T12:18:31;26.20;37.90
39045;DHT22;52192;52.002;5.956;2023-05-14T12:21:04;26.10;38.10
39045;DHT22;52192;52.002;5.956;2023-05-14T12:23:32;26.10;37.20
39045;DHT22;52192;52.002;5.956;2023-05-14T12:26:02;26.30;36.80
39045;DHT22;52192;52.002;5.956;2023-05-14T12:28:30;26.50;36.70
39045;DHT22;52192;52.002;5.956;2023-05-14T12:30:57;26.60;37.10
39045;DHT22;52192;52.002;5.956;2023-05-14T12:33:23;26.80;37.10
39045;DHT22;52192;52.002;5.956;2023-05-14T12:35:53;26.80;37.20
39045;DHT22;52192;52.002;5.956;2023-05-14T12:38:25;26.80;37.20
39045;DHT22;52192;52.002;5.956;2023-05-14T12:40:51;26.70;36.60
39045;DHT22;52192;52.002;5.956;2023-05-14T12:43:16;26.70;37.00
39045;DHT22;52192;52.002;5.956;2023-05-14T12:45:42;26.60;37.30
39045;DHT22;52192;52.002;5.956;2023-05-14T12:48:08;26.50;37.60
39045;DHT22;52192;52.002;5.956;2023-05-14T12:50:34;26.40;37.40
39045;DHT22;52192;52.002;5.956;2023-05-14T12:53:02;26.40;37.50
39045;DHT22;52192;52.002;5.956;2023-05-14T12:55:29;26.40;37.60
39045;DHT22;52192;52.002;5.956;2023-05-14T12:57:54;26.30;37.30
39045;DHT22;52192;52.002;5.956;2023-05-14T13:00:20;26.40;37.70
39045;DHT22;52192;52.002;5.956;2023-05-14T13:02:46;26.60;37.60
39045;DHT22;52192;52.002;5.956;2023-05-14T13:05:11;26.80;37.30
39045;DHT22;52192;52.002;5.956;2023-05-14T13:07:37;26.90;37.00
39045;DHT22;52192;52.002;5.956;2023-05-14T13:10:04;26.90;36.80
39045;DHT22;52192;52.002;5.956;2023-05-14T13:12:32;26.90;36.60
39045;DHT22;52192;52.002;5.956;2023-05-14T13:14:58;27.00;36.20
39045;DHT22;52192;52.002;5.956;2023-05-14T13:17:24;26.90;35.40
39045;DHT22;52192;52.002;5.956;2023-05-14T13:19:50;26.90;35.50
39045;DHT22;52192;52.002;5.956;2023-05-14T13:22:15;26.80;36.00
39045;DHT22;52192;52.002;5.956;2023-05-14T13:24:43;26.80;35.90
39045;DHT22;52192;52.002;5.956;2023-05-14T13:27:08;26.90;35.80
39045;DHT22;52192;52.002;5.956;2023-05-14T13:29:34;26.90;36.00
39045;DHT22;52192;52.002;5.956;2023-05-14T13:32:00;26.80;36.00
39045;DHT22;52192;52.002;5.956;2023-05-14T13:34:26;26.70;35.70
39045;DHT22;52192;52.002;5.956;2023-05-14T13:36:52;26.60;35.90
39045;DHT22;52192;52.002;5.956;2023-05-14T13:39:17;26.50;36.20
39045;DHT22;52192;52.002;5.956;2023-05-14T13:41:47;26.50;36.20
39045;DHT22;52192;52.002;5.956;2023-05-14T13:44:13;26.50;36.30
39045;DHT22;52192;52.002;5.956;2023-05-14T13:46:38;26.40;36.30
39045;DHT22;52192;52.002;5.956;2023-05-14T13:49:04;26.40;36.50
39045;DHT22;52192;52.002;5.956;2023-05-14T13:51:30;26.40;36.90
39045;DHT22;52192;52.002;5.956;2023-05-14T13:53:56;26.40;36.90
39045;DHT22;52192;52.002;5.956;2023-05-14T13:56:22;26.50;36.70
39045;DHT22;52192;52.002;5.956;2023-05-14T13:58:47;26.50;36.80
39045;DHT22;52192;52.002;5.956;2023-05-14T14:01:13;26.40;36.40
39045;DHT22;52192;52.002;5.956;2023-05-14T14:03:39;26.30;36.30
39045;DHT22;52192;52.002;5.956;2023-05-14T14:06:05;26.30;36.30
39045;DHT22;52192;52.002;5.956;2023-05-14T14:08:30;26.30;36.60
39045;DHT22;52192;52.002;5.956;2023-05-14T14:10:56;26.30;36.50
39045;DHT22;52192;52.002;5.956;2023-05-14T14:13:22;26.20;36.10
39045;DHT22;52192;52.002;5.956;2023-05-14T14:15:47;26.10;36.30
39045;DHT22;52192;52.002;5.956;2023-05-14T14:18:14;26.10;37.30
39045;DHT22;52192;52.002;5.956;2023-05-14T14:20:40;26.00;38.30
39045;DHT22;52192;52.002;5.956;2023-05-14T14:23:06;25.90;38.40
39045;DHT22;52192;52.002;5.956;2023-05-14T14:25:31;25.80;38.10
39045;DHT22;52192;52.002;5.956;2023-05-14T14:27:57;25.70;37.90
39045;DHT22;52192;52.002;5.956;2023-05-14T14:30:23;25.70;38.00
39045;DHT22;52192;52.002;5.956;2023-05-14T14:32:49;25.60;37.90
39045;DHT22;52192;52.002;5.956;2023-05-14T14:35:15;25.50;37.80
39045;DHT22;52192;52.002;5.956;2023-05-14T14:37:42;25.40;37.70
39045;DHT22;52192;52.002;5.956;2023-05-14T14:40:10;25.40;38.00
39045;DHT22;52192;52.002;5.956;2023-05-14T14:42:36;25.30;38.00
39045;DHT22;52192;52.002;5.956;2023-05-14T14:45:06;25.20;37.80
39045;DHT22;52192;52.002;5.956;2023-05-14T14:47:32;25.10;37.80
39045;DHT22;52192;52.002;5.956;2023-05-14T14:49:57;25.00;37.90
39045;DHT22;52192;52.002;5.956;2023-05-14T14:52:24;25.00;38.10
39045;DHT22;52192;52.002;5.956;2023-05-14T14:54:50;25.00;38.40
39045;DHT22;52192;52.002;5.956;2023-05-14T14:57:16;24.90;38.60
39045;DHT22;52192;52.002;5.956;2023-05-14T14:59:42;25.00;38.70
39045;DHT22;52192;52.002;5.956;2023-05-14T15:02:10;25.00;39.00
39045;DHT22;52192;52.002;5.956;2023-05-14T15:04:36;24.90;39.50
39045;DHT22;52192;52.002;5.956;2023-05-14T15:07:03;24.80;40.70
39045;DHT22;52192;52.002;5.956;2023-05-14T15:09:29;24.70;41.80
39045;DHT22;52192;52.002;5.956;2023-05-14T15:11:55;24.50;42.50
39045;DHT22;52192;52.002;5.956;2023-05-14T15:14:21;24.50;42.90
39045;DHT22;52192;52.002;5.956;2023-05-14T15:16:47;24.40;43.40
39045;DHT22;52192;52.002;5.956;2023-05-14T15:19:12;24.40;43.60
39045;DHT22;52192;52.002;5.956;2023-05-14T15:21:38;24.50;43.60
39045;DHT22;52192;52.002;5.956;2023-05-14T15:24:04;24.60;43.50
39045;DHT22;52192;52.002;5.956;2023-05-14T15:26:30;24.80;43.30
39045;DHT22;52192;52.002;5.956;2023-05-14T15:28:58;24.90;42.30
39045;DHT22;52192;52.002;5.956;2023-05-14T15:31:24;24.90;41.70
39045;DHT22;52192;52.002;5.956;2023-05-14T15:33:51;25.00;42.20
39045;DHT22;52192;52.002;5.956;2023-05-14T15:36:18;25.10;42.60
39045;DHT22;52192;52.002;5.956;2023-05-14T15:38:44;25.10;42.60